createdAt,value
2022-11-01T00:00:39.001Z,13.89
2022-11-01T00:01:39.025Z,13.89
2022-11-01T00:02:39.051Z,13.91
2022-11-01T00:03:38.973Z,13.89
2022-11-01T00:04:38.946Z,13.88
2022-11-01T00:05:38.979Z,13.88
2022-11-01T00:06:38.927Z,13.89
2022-11-01T00:07:38.926Z,13.89
2022-11-01T00:08:38.910Z,13.88
2022-11-01T00:09:38.903Z,13.87
2022-11-01T00:10:38.888Z,13.88
2022-11-01T00:11:38.878Z,13.87
2022-11-01T00:12:38.876Z,13.84
2022-11-01T00:13:38.858Z,13.84
2022-11-01T00:14:38.856Z,13.84
2022-11-01T00:15:38.867Z,13.84
2022-11-01T00:16:38.828Z,13.84
2022-11-01T00:17:38.868Z,13.82
2022-11-01T00:18:38.800Z,13.82
2022-11-01T00:19:38.790Z,13.81
2022-11-01T00:20:38.776Z,13.81
2022-11-01T00:21:38.788Z,13.81
2022-11-01T00:22:38.775Z,13.82
2022-11-01T00:23:38.736Z,13.81
2022-11-01T00:24:38.741Z,13.82
2022-11-01T00:25:38.759Z,13.81
2022-11-01T00:26:38.777Z,13.81
2022-11-01T00:27:38.713Z,13.81
2022-11-01T00:28:38.697Z,13.79
2022-11-01T00:29:38.692Z,13.79
2022-11-01T00:30:38.684Z,13.79
2022-11-01T00:31:38.654Z,13.79
2022-11-01T00:32:38.652Z,13.78
2022-11-01T00:33:38.667Z,13.78
2022-11-01T00:34:38.629Z,13.77
2022-11-01T00:35:38.606Z,13.78
2022-11-01T00:36:38.604Z,13.79
2022-11-01T00:37:38.590Z,13.77
2022-11-01T00:38:38.596Z,13.77
2022-11-01T00:39:38.564Z,13.75
2022-11-01T00:40:38.567Z,13.75
2022-11-01T00:41:38.543Z,13.75
2022-11-01T00:42:38.534Z,13.73
2022-11-01T00:43:38.526Z,13.77
2022-11-01T00:44:38.527Z,13.78
2022-11-01T00:45:38.499Z,13.77
2022-11-01T00:46:38.523Z,13.77
2022-11-01T00:47:38.478Z,13.78
2022-11-01T00:48:38.468Z,13.78
2022-11-01T00:49:38.466Z,13.79
2022-11-01T00:50:38.448Z,13.78
2022-11-01T00:51:38.449Z,13.78
2022-11-01T00:52:38.437Z,13.79
2022-11-01T00:53:38.418Z,13.78
2022-11-01T00:54:38.413Z,13.78
2022-11-01T00:55:38.386Z,13.78
2022-11-01T00:56:38.382Z,13.77
2022-11-01T00:57:38.367Z,13.78
2022-11-01T00:58:38.359Z,13.77
2022-11-01T00:59:40.943Z,13.78
2022-11-01T01:00:38.351Z,13.77
2022-11-01T01:01:38.489Z,13.77
2022-11-01T01:02:38.346Z,13.75
2022-11-01T01:03:38.331Z,13.75
2022-11-01T01:04:38.327Z,13.77
2022-11-01T01:05:38.278Z,13.75
2022-11-01T01:06:38.280Z,13.73
2022-11-01T01:07:38.263Z,13.69
2022-11-01T01:08:38.253Z,13.69
2022-11-01T01:09:38.237Z,13.70
2022-11-01T01:10:38.236Z,13.69
2022-11-01T01:11:38.219Z,13.69
2022-11-01T01:12:38.209Z,13.69
2022-11-01T01:13:38.202Z,13.69
2022-11-01T01:14:38.197Z,13.69
2022-11-01T01:15:38.429Z,13.70
2022-11-01T01:16:38.211Z,13.69
2022-11-01T01:17:38.149Z,13.67
2022-11-01T01:18:38.138Z,13.70
2022-11-01T01:19:38.134Z,13.69
2022-11-01T01:20:38.137Z,13.69
2022-11-01T01:21:38.113Z,13.69
2022-11-01T01:22:38.101Z,13.69
2022-11-01T01:23:38.082Z,13.69
2022-11-01T01:24:38.084Z,13.69
2022-11-01T01:25:38.082Z,13.69
2022-11-01T01:26:38.062Z,13.69
2022-11-01T01:27:38.043Z,13.71
2022-11-01T01:28:41.877Z,13.71
2022-11-01T01:29:38.033Z,13.70
2022-11-01T01:30:38.024Z,13.70
2022-11-01T01:31:38.001Z,13.70
2022-11-01T01:32:37.987Z,13.71
2022-11-01T01:33:37.987Z,13.73
2022-11-01T01:34:37.967Z,13.73
2022-11-01T01:35:37.963Z,13.73
2022-11-01T01:36:37.956Z,13.73
2022-11-01T01:37:37.933Z,13.73
2022-11-01T01:38:37.924Z,13.73
2022-11-01T01:39:37.915Z,13.71
2022-11-01T01:40:37.920Z,13.75
2022-11-01T01:41:37.885Z,13.75
2022-11-01T01:42:37.885Z,13.75
2022-11-01T01:43:37.865Z,13.75
2022-11-01T01:44:37.862Z,13.75
2022-11-01T01:45:37.863Z,13.75
2022-11-01T01:46:37.843Z,13.77
2022-11-01T01:47:37.828Z,13.77
2022-11-01T01:48:37.815Z,13.77
2022-11-01T01:49:41.557Z,13.77
2022-11-01T01:50:37.806Z,13.75
2022-11-01T01:51:37.814Z,13.77
2022-11-01T01:52:37.778Z,13.75
2022-11-01T01:53:37.767Z,13.75
2022-11-01T01:54:37.750Z,13.73
2022-11-01T01:55:37.742Z,13.73
2022-11-01T01:56:37.746Z,13.71
2022-11-01T01:57:37.723Z,13.70
2022-11-01T01:58:37.717Z,13.70
2022-11-01T01:59:37.699Z,13.70
2022-11-01T02:00:37.686Z,13.69
2022-11-01T02:01:37.843Z,13.67
2022-11-01T02:02:37.672Z,13.67
2022-11-01T02:03:37.655Z,13.66
2022-11-01T02:04:37.638Z,13.64
2022-11-01T02:05:37.626Z,13.63
2022-11-01T02:06:37.624Z,13.63
2022-11-01T02:07:37.610Z,13.63
2022-11-01T02:08:37.604Z,13.62
2022-11-01T02:09:37.593Z,13.60
2022-11-01T02:10:37.581Z,13.62
2022-11-01T02:11:37.581Z,13.59
2022-11-01T02:12:37.561Z,13.59
2022-11-01T02:13:37.564Z,13.57
2022-11-01T02:14:37.566Z,13.59
2022-11-01T02:15:37.533Z,13.59
2022-11-01T02:16:37.520Z,13.57
2022-11-01T02:17:37.504Z,13.59
2022-11-01T02:18:37.489Z,13.57
2022-11-01T02:19:37.490Z,13.55
2022-11-01T02:20:37.467Z,13.55
2022-11-01T02:21:37.478Z,13.55
2022-11-01T02:22:37.476Z,13.55
2022-11-01T02:23:37.438Z,13.54
2022-11-01T02:24:37.435Z,13.54
2022-11-01T02:25:37.417Z,13.52
2022-11-01T02:26:37.421Z,13.54
2022-11-01T02:27:37.395Z,13.51
2022-11-01T02:28:37.388Z,13.51
2022-11-01T02:29:37.377Z,13.51
2022-11-01T02:30:37.363Z,13.49
2022-11-01T02:31:37.365Z,13.49
2022-11-01T02:32:37.344Z,13.49
2022-11-01T02:33:37.340Z,13.48
2022-11-01T02:34:37.315Z,13.48
2022-11-01T02:35:37.309Z,13.46
2022-11-01T02:36:37.298Z,13.46
2022-11-01T02:37:37.297Z,13.46
2022-11-01T02:38:37.279Z,13.44
2022-11-01T02:39:37.260Z,13.44
2022-11-01T02:40:37.255Z,13.44
2022-11-01T02:41:37.245Z,13.44
2022-11-01T02:42:37.244Z,13.42
2022-11-01T02:43:37.229Z,13.42
2022-11-01T02:44:37.213Z,13.42
2022-11-01T02:45:37.199Z,13.42
2022-11-01T02:46:37.182Z,13.42
2022-11-01T02:47:37.187Z,13.42
2022-11-01T02:48:37.173Z,13.41
2022-11-01T02:49:37.164Z,13.42
2022-11-01T02:50:37.148Z,13.38
2022-11-01T02:51:37.136Z,13.38
2022-11-01T02:52:37.137Z,13.36
2022-11-01T02:53:37.120Z,13.38
2022-11-01T02:54:37.096Z,13.38
2022-11-01T02:55:37.165Z,13.33
2022-11-01T02:56:37.074Z,13.36
2022-11-01T02:57:37.078Z,13.33
2022-11-01T02:58:37.067Z,13.36
2022-11-01T02:59:37.051Z,13.32
2022-11-01T03:00:37.034Z,13.30
2022-11-01T03:01:37.128Z,13.32
2022-11-01T03:02:37.010Z,13.29
2022-11-01T03:03:37.015Z,13.30
2022-11-01T03:04:36.989Z,13.28
2022-11-01T03:05:36.989Z,13.28
2022-11-01T03:06:36.975Z,13.28
2022-11-01T03:07:36.960Z,13.28
2022-11-01T03:08:36.960Z,13.26
2022-11-01T03:09:36.948Z,13.26
2022-11-01T03:10:36.933Z,13.25
2022-11-01T03:11:36.921Z,13.28
2022-11-01T03:12:36.910Z,13.26
2022-11-01T03:13:36.909Z,13.23
2022-11-01T03:14:36.881Z,13.25
2022-11-01T03:15:36.872Z,13.25
2022-11-01T03:16:36.857Z,13.25
2022-11-01T03:17:36.857Z,13.25
2022-11-01T03:18:36.874Z,13.23
2022-11-01T03:19:36.837Z,13.26
2022-11-01T03:20:36.820Z,13.25
2022-11-01T03:21:36.806Z,13.25
2022-11-01T03:22:36.792Z,13.25
2022-11-01T03:23:36.796Z,13.23
2022-11-01T03:24:36.778Z,13.23
2022-11-01T03:25:36.764Z,13.22
2022-11-01T03:26:36.752Z,13.22
2022-11-01T03:27:36.735Z,13.23
2022-11-01T03:28:36.735Z,13.22
2022-11-01T03:29:36.729Z,13.23
2022-11-01T03:30:36.709Z,13.22
2022-11-01T03:31:36.701Z,13.20
2022-11-01T03:32:36.684Z,13.19
2022-11-01T03:33:36.678Z,13.17
2022-11-01T03:34:36.688Z,13.17
2022-11-01T03:35:36.666Z,13.17
2022-11-01T03:36:36.638Z,13.17
2022-11-01T03:37:36.642Z,13.17
2022-11-01T03:38:36.612Z,13.17
2022-11-01T03:39:36.612Z,13.15
2022-11-01T03:40:36.601Z,13.15
2022-11-01T03:41:36.589Z,13.12
2022-11-01T03:42:36.577Z,13.12
2022-11-01T03:43:36.558Z,13.14
2022-11-01T03:44:36.551Z,13.12
2022-11-01T03:45:36.556Z,13.11
2022-11-01T03:46:36.529Z,13.11
2022-11-01T03:47:36.517Z,13.11
2022-11-01T03:48:36.508Z,13.10
2022-11-01T03:49:36.496Z,13.08
2022-11-01T03:50:36.494Z,13.08
2022-11-01T03:51:36.488Z,13.05
2022-11-01T03:52:36.457Z,13.05
2022-11-01T03:53:36.459Z,13.04
2022-11-01T03:54:36.441Z,13.04
2022-11-01T03:55:36.438Z,13.05
2022-11-01T03:56:36.421Z,13.05
2022-11-01T03:57:36.407Z,13.04
2022-11-01T03:58:36.391Z,13.05
2022-11-01T03:59:36.389Z,13.03
2022-11-01T04:00:36.504Z,13.03
2022-11-01T04:01:36.608Z,13.03
2022-11-01T04:02:36.350Z,13.04
2022-11-01T04:03:36.356Z,13.03
2022-11-01T04:04:36.324Z,13.01
2022-11-01T04:05:36.361Z,13.00
2022-11-01T04:06:36.315Z,12.97
2022-11-01T04:07:36.298Z,13.00
2022-11-01T04:08:36.292Z,12.97
2022-11-01T04:09:36.275Z,13.00
2022-11-01T04:10:36.267Z,13.01
2022-11-01T04:11:36.265Z,12.97
2022-11-01T04:12:36.246Z,12.97
2022-11-01T04:13:36.235Z,12.97
2022-11-01T04:14:36.218Z,12.96
2022-11-01T04:15:36.217Z,12.95
2022-11-01T04:16:36.202Z,12.95
2022-11-01T04:17:36.191Z,12.95
2022-11-01T04:18:36.196Z,12.95
2022-11-01T04:19:36.172Z,12.93
2022-11-01T04:20:36.151Z,12.93
2022-11-01T04:21:36.162Z,12.93
2022-11-01T04:22:36.143Z,12.93
2022-11-01T04:23:36.123Z,12.92
2022-11-01T04:24:36.114Z,12.92
2022-11-01T04:25:36.097Z,12.90
2022-11-01T04:26:36.090Z,12.92
2022-11-01T04:27:36.094Z,12.87
2022-11-01T04:28:36.072Z,12.87
2022-11-01T04:29:36.064Z,12.87
2022-11-01T04:30:36.050Z,12.87
2022-11-01T04:31:36.029Z,12.86
2022-11-01T04:32:36.066Z,12.85
2022-11-01T04:33:36.013Z,12.86
2022-11-01T04:34:35.996Z,12.85
2022-11-01T04:35:35.987Z,12.86
2022-11-01T04:36:35.975Z,12.86
2022-11-01T04:37:35.970Z,12.86
2022-11-01T04:38:35.970Z,12.85
2022-11-01T04:39:35.941Z,12.85
2022-11-01T04:40:35.936Z,12.85
2022-11-01T04:41:35.918Z,12.85
2022-11-01T04:42:35.911Z,12.85
2022-11-01T04:43:35.911Z,12.83
2022-11-01T04:44:35.906Z,12.82
2022-11-01T04:45:35.872Z,12.79
2022-11-01T04:46:35.868Z,12.78
2022-11-01T04:47:35.854Z,12.79
2022-11-01T04:48:35.850Z,12.78
2022-11-01T04:49:35.838Z,12.79
2022-11-01T04:50:35.820Z,12.78
2022-11-01T04:51:35.853Z,12.78
2022-11-01T04:52:35.802Z,12.79
2022-11-01T04:53:35.798Z,12.78
2022-11-01T04:54:35.785Z,12.77
2022-11-01T04:55:35.765Z,12.78
2022-11-01T04:56:35.763Z,12.79
2022-11-01T04:57:35.743Z,12.79
2022-11-01T04:58:36.081Z,12.79
2022-11-01T04:59:35.723Z,12.77
2022-11-01T05:00:35.746Z,12.77
2022-11-01T05:01:35.864Z,12.77
2022-11-01T05:02:35.685Z,12.78
2022-11-01T05:03:35.684Z,12.79
2022-11-01T05:04:35.689Z,12.82
2022-11-01T05:05:35.652Z,12.82
2022-11-01T05:06:35.645Z,12.83
2022-11-01T05:07:35.630Z,12.83
2022-11-01T05:08:35.631Z,12.83
2022-11-01T05:09:35.607Z,12.83
2022-11-01T05:10:35.594Z,12.83
2022-11-01T05:11:35.590Z,12.83
2022-11-01T05:12:35.579Z,12.85
2022-11-01T05:13:35.583Z,12.85
2022-11-01T05:14:35.555Z,12.85
2022-11-01T05:15:39.946Z,12.85
2022-11-01T05:16:35.534Z,12.85
2022-11-01T05:17:35.528Z,12.86
2022-11-01T05:18:35.524Z,12.85
2022-11-01T05:19:35.497Z,12.86
2022-11-01T05:20:35.494Z,12.86
2022-11-01T05:21:35.476Z,12.85
2022-11-01T05:22:35.493Z,12.85
2022-11-01T05:23:35.469Z,12.86
2022-11-01T05:24:35.513Z,12.85
2022-11-01T05:25:38.059Z,12.86
2022-11-01T05:26:35.421Z,12.86
2022-11-01T05:27:35.419Z,12.86
2022-11-01T05:28:35.414Z,12.86
2022-11-01T05:29:35.404Z,12.85
2022-11-01T05:30:35.381Z,12.83
2022-11-01T05:31:35.381Z,12.82
2022-11-01T05:32:35.365Z,12.82
2022-11-01T05:33:35.347Z,12.79
2022-11-01T05:34:35.427Z,12.77
2022-11-01T05:35:35.335Z,12.77
2022-11-01T05:36:35.310Z,12.75
2022-11-01T05:37:35.303Z,12.75
2022-11-01T05:38:35.295Z,12.72
2022-11-01T05:39:35.319Z,12.74
2022-11-01T05:40:35.278Z,12.74
2022-11-01T05:41:35.294Z,12.74
2022-11-01T05:42:35.247Z,12.71
2022-11-01T05:43:35.239Z,12.71
2022-11-01T05:44:35.257Z,12.72
2022-11-01T05:45:35.222Z,12.70
2022-11-01T05:46:35.213Z,12.70
2022-11-01T05:47:35.190Z,12.67
2022-11-01T05:48:35.185Z,12.67
2022-11-01T05:49:35.176Z,12.64
2022-11-01T05:50:35.183Z,12.62
2022-11-01T05:51:35.153Z,12.60
2022-11-01T05:52:35.143Z,12.62
2022-11-01T05:53:35.154Z,12.62
2022-11-01T05:54:35.116Z,12.59
2022-11-01T05:55:35.122Z,12.57
2022-11-01T05:56:35.086Z,12.57
2022-11-01T05:57:35.150Z,12.57
2022-11-01T05:58:35.080Z,12.54
2022-11-01T05:59:35.061Z,12.57
2022-11-01T06:00:35.067Z,12.57
2022-11-01T06:01:35.106Z,12.53
2022-11-01T06:02:35.096Z,12.53
2022-11-01T06:03:35.014Z,12.52
2022-11-01T06:04:35.014Z,12.53
2022-11-01T06:05:35.007Z,12.54
2022-11-01T06:06:34.986Z,12.54
2022-11-01T06:07:34.971Z,12.56
2022-11-01T06:08:34.968Z,12.54
2022-11-01T06:09:34.943Z,12.54
2022-11-01T06:10:34.955Z,12.56
2022-11-01T06:11:40.599Z,12.54
2022-11-01T06:12:34.931Z,12.53
2022-11-01T06:13:34.903Z,12.54
2022-11-01T06:15:37.281Z,12.54
2022-11-01T06:16:34.875Z,12.54
2022-11-01T06:17:34.862Z,12.54
2022-11-01T06:18:34.844Z,12.52
2022-11-01T06:19:34.838Z,12.54
2022-11-01T06:20:34.835Z,12.52
2022-11-01T06:21:34.820Z,12.53
2022-11-01T06:22:34.822Z,12.50
2022-11-01T06:23:34.787Z,12.53
2022-11-01T06:24:34.788Z,12.53
2022-11-01T06:25:35.008Z,12.54
2022-11-01T06:26:34.769Z,12.54
2022-11-01T06:27:34.744Z,12.54
2022-11-01T06:28:34.744Z,12.56
2022-11-01T06:29:34.726Z,12.59
2022-11-01T06:30:34.736Z,12.59
2022-11-01T06:31:34.715Z,12.59
2022-11-01T06:32:34.728Z,12.57
2022-11-01T06:33:34.729Z,12.57
2022-11-01T06:34:34.677Z,12.57
2022-11-01T06:35:34.694Z,12.56
2022-11-01T06:36:34.653Z,12.57
2022-11-01T06:37:34.656Z,12.57
2022-11-01T06:38:34.633Z,12.57
2022-11-01T06:39:34.614Z,12.57
2022-11-01T06:40:34.615Z,12.59
2022-11-01T06:41:34.604Z,12.57
2022-11-01T06:42:34.601Z,12.60
2022-11-01T06:43:34.571Z,12.60
2022-11-01T06:44:34.572Z,12.64
2022-11-01T06:45:34.550Z,12.65
2022-11-01T06:46:34.557Z,12.65
2022-11-01T06:47:34.555Z,12.68
2022-11-01T06:48:34.522Z,12.68
2022-11-01T06:49:34.516Z,12.68
2022-11-01T06:50:34.494Z,12.70
2022-11-01T06:51:34.500Z,12.72
2022-11-01T06:52:34.477Z,12.74
2022-11-01T06:53:34.466Z,12.75
2022-11-01T06:54:34.463Z,12.74
2022-11-01T06:55:34.449Z,12.72
2022-11-01T06:56:34.449Z,12.74
2022-11-01T06:57:34.420Z,12.77
2022-11-01T06:58:34.412Z,12.79
2022-11-01T06:59:34.395Z,12.78
2022-11-01T07:00:34.388Z,12.77
2022-11-01T07:01:34.469Z,12.75
2022-11-01T07:02:34.543Z,12.77
2022-11-01T07:03:34.353Z,12.78
2022-11-01T07:04:34.363Z,12.78
2022-11-01T07:05:37.010Z,12.82
2022-11-01T07:06:34.332Z,12.82
2022-11-01T07:07:34.302Z,12.85
2022-11-01T07:08:34.304Z,12.86
2022-11-01T07:09:34.278Z,12.87
2022-11-01T07:10:34.307Z,12.89
2022-11-01T07:11:34.272Z,12.90
2022-11-01T07:12:34.248Z,12.92
2022-11-01T07:13:34.251Z,12.92
2022-11-01T07:14:34.230Z,12.92
2022-11-01T07:15:34.223Z,12.92
2022-11-01T07:16:34.217Z,12.92
2022-11-01T07:17:34.202Z,12.90
2022-11-01T07:18:34.209Z,12.90
2022-11-01T07:19:34.171Z,12.92
2022-11-01T07:20:34.199Z,12.90
2022-11-01T07:21:34.155Z,12.87
2022-11-01T07:22:34.147Z,12.90
2022-11-01T07:23:34.131Z,12.90
2022-11-01T07:24:34.137Z,12.93
2022-11-01T07:25:34.100Z,12.93
2022-11-01T07:26:34.102Z,12.96
2022-11-01T07:27:34.085Z,12.96
2022-11-01T07:28:34.078Z,12.97
2022-11-01T07:29:34.066Z,12.95
2022-11-01T07:30:34.052Z,12.96
2022-11-01T07:31:34.041Z,13.00
2022-11-01T07:32:37.622Z,13.01
2022-11-01T07:33:34.028Z,13.05
2022-11-01T07:34:34.035Z,13.07
2022-11-01T07:35:33.990Z,13.10
2022-11-01T07:36:33.996Z,13.10
2022-11-01T07:37:33.981Z,13.10
2022-11-01T07:38:33.961Z,13.10
2022-11-01T07:39:33.962Z,13.11
2022-11-01T07:40:33.942Z,13.14
2022-11-01T07:41:33.950Z,13.12
2022-11-01T07:42:33.921Z,13.14
2022-11-01T07:43:33.902Z,13.15
2022-11-01T07:44:33.925Z,13.19
2022-11-01T07:45:33.887Z,13.17
2022-11-01T07:46:33.886Z,13.19
2022-11-01T07:47:33.866Z,13.17
2022-11-01T07:48:33.861Z,13.20
2022-11-01T07:49:33.857Z,13.23
2022-11-01T07:50:33.845Z,13.25
2022-11-01T07:51:33.824Z,13.26
2022-11-01T07:52:33.816Z,13.26
2022-11-01T07:53:33.810Z,13.28
2022-11-01T07:54:33.785Z,13.26
2022-11-01T07:55:33.796Z,13.26
2022-11-01T07:56:33.773Z,13.25
2022-11-01T07:57:33.759Z,13.26
2022-11-01T07:58:33.748Z,13.26
2022-11-01T07:59:33.731Z,13.23
2022-11-01T08:01:33.915Z,13.26
2022-11-01T08:02:33.750Z,13.26
2022-11-01T08:03:33.687Z,13.28
2022-11-01T08:04:33.695Z,13.30
2022-11-01T08:05:33.668Z,13.30
2022-11-01T08:06:33.667Z,13.33
2022-11-01T08:07:33.647Z,13.36
2022-11-01T08:08:33.636Z,13.38
2022-11-01T08:09:33.636Z,13.38
2022-11-01T08:10:33.620Z,13.36
2022-11-01T08:11:33.621Z,13.36
2022-11-01T08:12:33.599Z,13.33
2022-11-01T08:13:33.602Z,13.32
2022-11-01T08:14:33.570Z,13.36
2022-11-01T08:15:33.563Z,13.39
2022-11-01T08:16:33.582Z,13.41
2022-11-01T08:17:33.544Z,13.42
2022-11-01T08:18:33.530Z,13.44
2022-11-01T08:19:33.517Z,13.46
2022-11-01T08:20:33.506Z,13.49
2022-11-01T08:21:33.501Z,13.49
2022-11-01T08:22:33.521Z,13.55
2022-11-01T08:23:33.466Z,13.59
2022-11-01T08:24:33.474Z,13.57
2022-11-01T08:25:33.451Z,13.62
2022-11-01T08:26:33.466Z,13.59
2022-11-01T08:27:34.563Z,13.57
2022-11-01T08:28:33.434Z,13.57
2022-11-01T08:29:33.407Z,13.55
2022-11-01T08:30:33.393Z,13.59
2022-11-01T08:31:33.385Z,13.63
2022-11-01T08:32:33.390Z,13.66
2022-11-01T08:33:33.367Z,13.66
2022-11-01T08:34:33.348Z,13.69
2022-11-01T08:35:33.343Z,13.71
2022-11-01T08:36:33.330Z,13.75
2022-11-01T08:37:33.333Z,13.78
2022-11-01T08:38:33.313Z,13.79
2022-11-01T08:39:33.292Z,13.79
2022-11-01T08:40:33.301Z,13.82
2022-11-01T08:41:37.135Z,13.85
2022-11-01T08:42:33.278Z,13.87
2022-11-01T08:43:37.982Z,13.92
2022-11-01T08:44:33.256Z,13.96
2022-11-01T08:45:33.230Z,13.99
2022-11-01T08:46:33.213Z,14.03
2022-11-01T08:47:33.223Z,14.09
2022-11-01T08:48:33.202Z,14.10
2022-11-01T08:49:33.185Z,14.14
2022-11-01T08:50:33.173Z,14.14
2022-11-01T08:51:33.167Z,14.15
2022-11-01T08:52:33.167Z,14.18
2022-11-01T08:53:33.148Z,14.21
2022-11-01T08:54:33.129Z,14.24
2022-11-01T08:55:37.377Z,14.25
2022-11-01T08:56:33.100Z,14.28
2022-11-01T08:57:33.127Z,14.28
2022-11-01T08:58:33.079Z,14.32
2022-11-01T08:59:33.077Z,14.36
2022-11-01T09:00:33.064Z,14.42
2022-11-01T09:01:33.254Z,14.43
2022-11-01T09:02:33.118Z,14.42
2022-11-01T09:03:33.045Z,14.42
2022-11-01T09:04:33.021Z,14.45
2022-11-01T09:05:33.002Z,14.46
2022-11-01T09:06:36.247Z,14.50
2022-11-01T09:07:33.008Z,14.50
2022-11-01T09:08:32.977Z,14.50
2022-11-01T09:09:32.967Z,14.52
2022-11-01T09:10:32.947Z,14.55
2022-11-01T09:11:32.948Z,14.58
2022-11-01T09:12:32.990Z,14.62
2022-11-01T09:13:32.941Z,14.65
2022-11-01T09:14:32.909Z,14.69
2022-11-01T09:15:32.906Z,14.75
2022-11-01T09:16:32.895Z,14.77
2022-11-01T09:17:32.873Z,14.80
2022-11-01T09:18:32.874Z,14.84
2022-11-01T09:19:32.855Z,14.88
2022-11-01T09:20:32.843Z,14.92
2022-11-01T09:21:32.840Z,14.96
2022-11-01T09:22:32.816Z,15.02
2022-11-01T09:23:32.829Z,15.06
2022-11-01T09:24:32.793Z,15.10
2022-11-01T09:25:32.803Z,15.14
2022-11-01T09:26:32.775Z,15.20
2022-11-01T09:27:32.775Z,15.23
2022-11-01T09:28:33.936Z,15.25
2022-11-01T09:30:32.771Z,15.29
2022-11-01T09:31:32.721Z,15.32
2022-11-01T09:32:32.714Z,15.34
2022-11-01T09:33:32.712Z,15.38
2022-11-01T09:34:32.694Z,15.41
2022-11-01T09:35:32.690Z,15.43
2022-11-01T09:36:32.663Z,15.46
2022-11-01T09:37:32.669Z,15.49
2022-11-01T09:38:32.649Z,15.51
2022-11-01T09:39:32.634Z,15.54
2022-11-01T09:40:32.617Z,15.59
2022-11-01T09:41:32.620Z,15.59
2022-11-01T09:42:32.687Z,15.60
2022-11-01T09:43:32.622Z,15.62
2022-11-01T09:44:32.580Z,15.65
2022-11-01T09:45:32.571Z,15.67
2022-11-01T09:46:32.573Z,15.65
2022-11-01T09:47:32.551Z,15.68
2022-11-01T09:48:32.540Z,15.68
2022-11-01T09:49:32.527Z,15.68
2022-11-01T09:50:32.514Z,15.65
2022-11-01T09:51:32.501Z,15.65
2022-11-01T09:52:32.494Z,15.64
2022-11-01T09:53:32.488Z,15.65
2022-11-01T09:54:32.465Z,15.62
2022-11-01T09:55:32.453Z,15.67
2022-11-01T09:56:32.438Z,15.64
2022-11-01T09:57:32.430Z,15.64
2022-11-01T09:58:32.466Z,15.65
2022-11-01T09:59:32.424Z,15.67
2022-11-01T10:00:32.401Z,15.67
2022-11-01T10:01:32.566Z,15.68
2022-11-01T10:02:32.372Z,15.69
2022-11-01T10:03:32.384Z,15.71
2022-11-01T10:04:32.356Z,15.74
2022-11-01T10:05:32.353Z,15.75
2022-11-01T10:06:32.342Z,15.75
2022-11-01T10:07:32.329Z,15.76
2022-11-01T10:08:32.353Z,15.80
2022-11-01T10:09:32.318Z,15.78
2022-11-01T10:10:33.934Z,15.80
2022-11-01T10:11:32.276Z,15.80
2022-11-01T10:12:32.269Z,15.82
2022-11-01T10:13:32.265Z,15.84
2022-11-01T10:14:32.268Z,15.82
2022-11-01T10:15:32.233Z,15.84
2022-11-01T10:16:32.308Z,15.84
2022-11-01T10:17:32.213Z,15.86
2022-11-01T10:18:32.207Z,15.87
2022-11-01T10:19:32.227Z,15.87
2022-11-01T10:20:32.177Z,15.87
2022-11-01T10:21:32.182Z,15.90
2022-11-01T10:22:32.167Z,15.92
2022-11-01T10:23:32.143Z,15.93
2022-11-01T10:24:32.160Z,15.94
2022-11-01T10:25:32.130Z,15.94
2022-11-01T10:26:32.189Z,15.96
2022-11-01T10:27:36.202Z,16.00
2022-11-01T10:28:32.102Z,16.02
2022-11-01T10:29:32.080Z,16.04
2022-11-01T10:30:32.076Z,16.07
2022-11-01T10:31:32.094Z,16.08
2022-11-01T10:32:32.047Z,16.08
2022-11-01T10:33:32.042Z,16.08
2022-11-01T10:34:35.807Z,16.08
2022-11-01T10:35:32.029Z,16.07
2022-11-01T10:36:32.128Z,16.07
2022-11-01T10:37:31.989Z,16.08
2022-11-01T10:38:49.973Z,16.08
2022-11-01T10:40:31.986Z,16.11
2022-11-01T10:41:31.963Z,16.12
2022-11-01T10:42:31.942Z,16.14
2022-11-01T10:43:31.942Z,16.14
2022-11-01T10:44:31.959Z,16.15
2022-11-01T10:45:31.911Z,16.15
2022-11-01T10:46:31.973Z,16.17
2022-11-01T10:47:31.895Z,16.20
2022-11-01T10:48:31.875Z,16.20
2022-11-01T10:49:52.919Z,16.20
2022-11-01T10:50:31.870Z,16.20
2022-11-01T10:51:31.849Z,16.21
2022-11-01T10:52:31.826Z,16.23
2022-11-01T10:53:31.819Z,16.24
2022-11-01T10:54:31.816Z,16.25
2022-11-01T10:55:31.819Z,16.27
2022-11-01T10:56:31.884Z,16.33
2022-11-01T10:57:31.783Z,16.33
2022-11-01T10:58:31.762Z,16.34
2022-11-01T10:59:31.751Z,16.39
2022-11-01T11:00:31.790Z,16.42
2022-11-01T11:01:31.966Z,16.45
2022-11-01T11:02:31.769Z,16.53
2022-11-01T11:03:31.701Z,16.63
2022-11-01T11:04:31.728Z,16.70
2022-11-01T11:05:31.696Z,16.76
2022-11-01T11:06:31.683Z,16.83
2022-11-01T11:07:31.682Z,16.94
2022-11-01T11:08:31.658Z,17.16
2022-11-01T11:09:31.641Z,17.34
2022-11-01T11:10:31.645Z,17.49
2022-11-01T11:11:31.641Z,17.56
2022-11-01T11:12:31.608Z,17.74
2022-11-01T11:13:31.601Z,17.87
2022-11-01T11:14:31.640Z,17.99
2022-11-01T11:15:35.398Z,18.10
2022-11-01T11:16:31.562Z,18.15
2022-11-01T11:17:31.571Z,18.18
2022-11-01T11:18:31.550Z,18.23
2022-11-01T11:19:31.528Z,18.25
2022-11-01T11:20:31.604Z,18.25
2022-11-01T11:21:31.516Z,18.26
2022-11-01T11:22:31.498Z,18.25
2022-11-01T11:23:31.494Z,18.21
2022-11-01T11:24:31.477Z,18.18
2022-11-01T11:25:31.464Z,18.17
2022-11-01T11:26:36.153Z,18.14
2022-11-01T11:27:31.450Z,18.08
2022-11-01T11:28:31.467Z,18.03
2022-11-01T11:29:31.421Z,17.99
2022-11-01T11:30:31.430Z,17.95
2022-11-01T11:31:31.410Z,17.93
2022-11-01T11:32:31.390Z,17.90
2022-11-01T11:33:31.381Z,17.87
2022-11-01T11:34:31.369Z,17.86
2022-11-01T11:35:31.361Z,17.82
2022-11-01T11:36:31.358Z,17.79
2022-11-01T11:37:31.354Z,17.79
2022-11-01T11:38:31.350Z,17.77
2022-11-01T11:39:31.317Z,17.75
2022-11-01T11:40:31.301Z,17.71
2022-11-01T11:41:31.289Z,17.71
2022-11-01T11:42:31.328Z,17.70
2022-11-01T11:43:31.271Z,17.66
2022-11-01T11:44:31.264Z,17.64
2022-11-01T11:45:31.252Z,17.63
2022-11-01T11:46:31.244Z,17.59
2022-11-01T11:47:31.237Z,17.58
2022-11-01T11:48:31.226Z,17.58
2022-11-01T11:49:31.211Z,17.58
2022-11-01T11:50:31.202Z,17.56
2022-11-01T11:51:31.187Z,17.56
2022-11-01T11:52:36.858Z,17.56
2022-11-01T11:53:31.181Z,17.55
2022-11-01T11:54:31.161Z,17.55
2022-11-01T11:55:31.136Z,17.56
2022-11-01T11:56:31.140Z,17.54
2022-11-01T11:57:31.122Z,17.54
2022-11-01T11:58:31.127Z,17.51
2022-11-01T11:59:31.099Z,17.52
2022-11-01T12:00:31.092Z,17.51
2022-11-01T12:01:31.146Z,17.52
2022-11-01T12:02:31.117Z,17.52
2022-11-01T12:03:31.095Z,17.54
2022-11-01T12:04:31.097Z,17.52
2022-11-01T12:05:31.035Z,17.52
2022-11-01T12:06:31.034Z,17.51
2022-11-01T12:07:31.026Z,17.51
2022-11-01T12:08:31.004Z,17.52
2022-11-01T12:09:30.998Z,17.52
2022-11-01T12:10:30.987Z,17.51
2022-11-01T12:11:30.966Z,17.51
2022-11-01T12:12:30.960Z,17.49
2022-11-01T12:13:30.949Z,17.51
2022-11-01T12:14:30.944Z,17.54
2022-11-01T12:15:30.943Z,17.52
2022-11-01T12:16:30.916Z,17.51
2022-11-01T12:17:30.909Z,17.52
2022-11-01T12:18:30.890Z,17.51
2022-11-01T12:19:30.895Z,17.49
2022-11-01T12:20:30.873Z,17.49
2022-11-01T12:21:30.855Z,17.46
2022-11-01T12:22:30.859Z,17.46
2022-11-01T12:23:30.841Z,17.46
2022-11-01T12:24:30.842Z,17.46
2022-11-01T12:25:30.817Z,17.44
2022-11-01T12:26:30.808Z,17.48
2022-11-01T12:27:30.797Z,17.44
2022-11-01T12:28:30.784Z,17.41
2022-11-01T12:29:30.796Z,17.44
2022-11-01T12:30:30.771Z,17.43
2022-11-01T12:31:31.707Z,17.46
2022-11-01T12:32:30.749Z,17.46
2022-11-01T12:33:30.721Z,17.48
2022-11-01T12:34:30.725Z,17.48
2022-11-01T12:35:30.714Z,17.46
2022-11-01T12:36:30.705Z,17.46
2022-11-01T12:37:30.683Z,17.44
2022-11-01T12:38:30.672Z,17.41
2022-11-01T12:39:30.663Z,17.43
2022-11-01T12:40:30.675Z,17.41
2022-11-01T12:41:30.649Z,17.38
2022-11-01T12:42:30.624Z,17.38
2022-11-01T12:43:30.616Z,17.37
2022-11-01T12:44:30.605Z,17.34
2022-11-01T12:45:30.611Z,17.36
2022-11-01T12:46:30.592Z,17.36
2022-11-01T12:47:30.567Z,17.37
2022-11-01T12:48:30.584Z,17.36
2022-11-01T12:49:30.545Z,17.36
2022-11-01T12:50:30.556Z,17.36
2022-11-01T12:51:30.535Z,17.36
2022-11-01T12:52:30.528Z,17.37
2022-11-01T12:53:30.510Z,17.36
2022-11-01T12:54:30.495Z,17.34
2022-11-01T12:55:30.492Z,17.36
2022-11-01T12:56:30.493Z,17.34